sensor_id;sensor_type;location;lat;lon;timestamp;temperature;humidity
70068;DHT22;57425;51.616;6.680;2023-02-15T00:01:07;5.40;80.60
70068;DHT22;57425;51.616;6.680;2023-02-15T00:03:33;5.40;80.50
70068;DHT22;57425;51.616;6.680;2023-02-15T00:05:58;5.40;80.60
70068;DHT22;57425;51.616;6.680;2023-02-15T00:08:24;5.40;80.60
70068;DHT22;57425;51.616;6.680;2023-02-15T00:10:49;5.40;80.40
70068;DHT22;57425;51.616;6.680;2023-02-15T00:13:15;5.40;80.50
70068;DHT22;57425;51.616;6.680;2023-02-15T00:15:41;5.40;81.00
70068;DHT22;57425;51.616;6.680;2023-02-15T00:18:06;5.30;80.30
70068;DHT22;57425;51.616;6.680;2023-02-15T00:20:32;5.40;80.40
70068;DHT22;57425;51.616;6.680;2023-02-15T00:22:58;5.30;80.40
70068;DHT22;57425;51.616;6.680;2023-02-15T00:25:25;5.30;80.90
70068;DHT22;57425;51.616;6.680;2023-02-15T00:27:50;5.30;80.40
70068;DHT22;57425;51.616;6.680;2023-02-15T00:30:16;5.30;80.40
70068;DHT22;57425;51.616;6.680;2023-02-15T00:32:41;5.30;80.30
70068;DHT22;57425;51.616;6.680;2023-02-15T00:35:07;5.30;80.30
70068;DHT22;57425;51.616;6.680;2023-02-15T00:37:34;5.30;80.30
70068;DHT22;57425;51.616;6.680;2023-02-15T00:40:00;5.20;80.30
70068;DHT22;57425;51.616;6.680;2023-02-15T00:42:25;5.20;80.20
70068;DHT22;57425;51.616;6.680;2023-02-15T00:44:51;5.20;80.20
70068;DHT22;57425;51.616;6.680;2023-02-15T00:47:17;5.20;80.30
70068;DHT22;57425;51.616;6.680;2023-02-15T00:49:42;5.20;80.40
70068;DHT22;57425;51.616;6.680;2023-02-15T00:52:08;5.20;80.40
70068;DHT22;57425;51.616;6.680;2023-02-15T00:54:33;5.20;80.50
70068;DHT22;57425;51.616;6.680;2023-02-15T00:57:00;5.20;80.50
70068;DHT22;57425;51.616;6.680;2023-02-15T00:59:25;5.20;80.50
70068;DHT22;57425;51.616;6.680;2023-02-15T01:01:51;5.20;80.50
70068;DHT22;57425;51.616;6.680;2023-02-15T01:04:17;5.20;80.40
70068;DHT22;57425;51.616;6.680;2023-02-15T01:06:42;5.10;80.30
70068;DHT22;57425;51.616;6.680;2023-02-15T01:09:08;5.10;80.90
70068;DHT22;57425;51.616;6.680;2023-02-15T01:11:34;5.10;80.30
70068;DHT22;57425;51.616;6.680;2023-02-15T01:14:00;5.10;80.30
70068;DHT22;57425;51.616;6.680;2023-02-15T01:16:27;5.10;80.30
70068;DHT22;57425;51.616;6.680;2023-02-15T01:18:53;5.10;80.20
70068;DHT22;57425;51.616;6.680;2023-02-15T01:21:21;5.10;80.30
70068;DHT22;57425;51.616;6.680;2023-02-15T01:23:47;5.00;80.10
70068;DHT22;57425;51.616;6.680;2023-02-15T01:26:13;5.00;80.20
70068;DHT22;57425;51.616;6.680;2023-02-15T01:28:39;5.00;80.20
70068;DHT22;57425;51.616;6.680;2023-02-15T01:31:07;5.00;80.20
70068;DHT22;57425;51.616;6.680;2023-02-15T01:33:33;5.00;80.10
70068;DHT22;57425;51.616;6.680;2023-02-15T01:35:58;5.00;80.10
70068;DHT22;57425;51.616;6.680;2023-02-15T01:40:52;5.00;79.60
70068;DHT22;57425;51.616;6.680;2023-02-15T01:43:18;5.00;80.00
70068;DHT22;57425;51.616;6.680;2023-02-15T01:45:47;4.90;80.00
70068;DHT22;57425;51.616;6.680;2023-02-15T01:48:20;4.90;80.00
70068;DHT22;57425;51.616;6.680;2023-02-15T01:50:56;4.90;79.90
70068;DHT22;57425;51.616;6.680;2023-02-15T01:53:40;4.90;79.90
70068;DHT22;57425;51.616;6.680;2023-02-15T01:56:29;4.90;79.80
70068;DHT22;57425;51.616;6.680;2023-02-15T01:59:00;4.90;80.30
70068;DHT22;57425;51.616;6.680;2023-02-15T02:01:28;4.80;80.10
70068;DHT22;57425;51.616;6.680;2023-02-15T02:04:22;4.80;80.20
70068;DHT22;57425;51.616;6.680;2023-02-15T02:06:50;4.90;79.80
70068;DHT22;57425;51.616;6.680;2023-02-15T02:09:16;4.80;80.20
70068;DHT22;57425;51.616;6.680;2023-02-15T02:11:45;4.80;80.70
70068;DHT22;57425;51.616;6.680;2023-02-15T02:14:11;4.80;80.00
70068;DHT22;57425;51.616;6.680;2023-02-15T02:16:49;4.80;80.00
70068;DHT22;57425;51.616;6.680;2023-02-15T02:25:03;4.70;80.00
70068;DHT22;57425;51.616;6.680;2023-02-15T02:30:28;4.70;80.10
70068;DHT22;57425;51.616;6.680;2023-02-15T02:35:48;4.70;79.90
70068;DHT22;57425;51.616;6.680;2023-02-15T02:38:28;4.60;80.40
70068;DHT22;57425;51.616;6.680;2023-02-15T02:43:47;4.60;79.80
70068;DHT22;57425;51.616;6.680;2023-02-15T02:46:26;4.60;80.10
70068;DHT22;57425;51.616;6.680;2023-02-15T02:48:54;4.60;79.90
70068;DHT22;57425;51.616;6.680;2023-02-15T02:51:19;4.50;80.10
70068;DHT22;57425;51.616;6.680;2023-02-15T02:53:54;4.50;80.00
70068;DHT22;57425;51.616;6.680;2023-02-15T02:56:30;4.50;79.80
70068;DHT22;57425;51.616;6.680;2023-02-15T02:59:02;4.50;79.90
70068;DHT22;57425;51.616;6.680;2023-02-15T03:01:35;4.50;80.00
70068;DHT22;57425;51.616;6.680;2023-02-15T03:04:16;4.50;80.00
70068;DHT22;57425;51.616;6.680;2023-02-15T03:06:56;4.50;79.60
70068;DHT22;57425;51.616;6.680;2023-02-15T03:09:31;4.50;79.70
70068;DHT22;57425;51.616;6.680;2023-02-15T03:12:13;4.40;79.80
70068;DHT22;57425;51.616;6.680;2023-02-15T03:14:41;4.40;79.80
70068;DHT22;57425;51.616;6.680;2023-02-15T03:17:11;4.40;79.80
70068;DHT22;57425;51.616;6.680;2023-02-15T03:19:38;4.40;79.80
70068;DHT22;57425;51.616;6.680;2023-02-15T03:22:12;4.40;79.80
70068;DHT22;57425;51.616;6.680;2023-02-15T03:27:12;4.40;79.60
70068;DHT22;57425;51.616;6.680;2023-02-15T03:29:45;4.40;79.60
70068;DHT22;57425;51.616;6.680;2023-02-15T03:32:12;4.30;79.60
70068;DHT22;57425;51.616;6.680;2023-02-15T03:34:39;4.40;79.70
70068;DHT22;57425;51.616;6.680;2023-02-15T03:37:13;4.30;79.60
70068;DHT22;57425;51.616;6.680;2023-02-15T03:39:48;4.30;79.90
70068;DHT22;57425;51.616;6.680;2023-02-15T03:42:31;4.30;79.30
70068;DHT22;57425;51.616;6.680;2023-02-15T03:47:32;4.30;79.00
70068;DHT22;57425;51.616;6.680;2023-02-15T03:50:04;4.20;80.00
70068;DHT22;57425;51.616;6.680;2023-02-15T03:52:51;4.30;79.50
70068;DHT22;57425;51.616;6.680;2023-02-15T03:55:17;4.20;79.60
70068;DHT22;57425;51.616;6.680;2023-02-15T03:57:43;4.20;79.50
70068;DHT22;57425;51.616;6.680;2023-02-15T04:00:30;4.20;79.50
70068;DHT22;57425;51.616;6.680;2023-02-15T04:03:26;4.20;79.50
70068;DHT22;57425;51.616;6.680;2023-02-15T04:05:53;4.20;79.50
70068;DHT22;57425;51.616;6.680;2023-02-15T04:08:19;4.10;79.50
70068;DHT22;57425;51.616;6.680;2023-02-15T04:10:44;4.10;79.50
70068;DHT22;57425;51.616;6.680;2023-02-15T04:13:30;4.10;79.40
70068;DHT22;57425;51.616;6.680;2023-02-15T04:15:56;4.10;79.20
70068;DHT22;57425;51.616;6.680;2023-02-15T04:18:37;4.10;79.30
70068;DHT22;57425;51.616;6.680;2023-02-15T04:21:23;4.10;79.30
70068;DHT22;57425;51.616;6.680;2023-02-15T04:24:07;4.10;79.40
70068;DHT22;57425;51.616;6.680;2023-02-15T04:26:53;4.10;79.30
70068;DHT22;57425;51.616;6.680;2023-02-15T04:29:20;4.10;79.30
70068;DHT22;57425;51.616;6.680;2023-02-15T04:31:46;4.10;79.20
70068;DHT22;57425;51.616;6.680;2023-02-15T04:34:12;4.00;79.20
70068;DHT22;57425;51.616;6.680;2023-02-15T04:36:38;4.00;79.20
70068;DHT22;57425;51.616;6.680;2023-02-15T04:39:05;4.00;79.70
70068;DHT22;57425;51.616;6.680;2023-02-15T04:41:33;4.00;79.10
70068;DHT22;57425;51.616;6.680;2023-02-15T04:43:59;4.00;79.00
70068;DHT22;57425;51.616;6.680;2023-02-15T04:46:26;4.00;79.00
70068;DHT22;57425;51.616;6.680;2023-02-15T04:48:52;4.00;78.90
70068;DHT22;57425;51.616;6.680;2023-02-15T04:51:17;3.90;78.80
70068;DHT22;57425;51.616;6.680;2023-02-15T04:53:43;3.90;78.80
70068;DHT22;57425;51.616;6.680;2023-02-15T04:56:09;4.00;78.90
70068;DHT22;57425;51.616;6.680;2023-02-15T04:58:34;3.90;79.00
70068;DHT22;57425;51.616;6.680;2023-02-15T05:01:01;3.90;79.00
70068;DHT22;57425;51.616;6.680;2023-02-15T05:03:26;3.90;78.90
70068;DHT22;57425;51.616;6.680;2023-02-15T05:05:52;3.90;78.90
70068;DHT22;57425;51.616;6.680;2023-02-15T05:08:18;3.90;78.80
70068;DHT22;57425;51.616;6.680;2023-02-15T05:10:43;3.90;78.90
70068;DHT22;57425;51.616;6.680;2023-02-15T05:13:09;3.90;78.90
70068;DHT22;57425;51.616;6.680;2023-02-15T05:15:34;3.90;78.90
70068;DHT22;57425;51.616;6.680;2023-02-15T05:18:00;3.90;78.80
70068;DHT22;57425;51.616;6.680;2023-02-15T05:20:27;3.90;79.40
70068;DHT22;57425;51.616;6.680;2023-02-15T05:22:55;3.90;78.80
70068;DHT22;57425;51.616;6.680;2023-02-15T05:25:21;3.80;78.70
70068;DHT22;57425;51.616;6.680;2023-02-15T05:28:07;3.80;78.80
70068;DHT22;57425;51.616;6.680;2023-02-15T05:30:51;3.80;78.80
70068;DHT22;57425;51.616;6.680;2023-02-15T05:33:23;3.80;79.30
70068;DHT22;57425;51.616;6.680;2023-02-15T05:35:48;3.80;78.90
70068;DHT22;57425;51.616;6.680;2023-02-15T05:38:14;3.80;78.80
70068;DHT22;57425;51.616;6.680;2023-02-15T05:40:39;3.70;78.80
70068;DHT22;57425;51.616;6.680;2023-02-15T05:43:05;3.70;78.80
70068;DHT22;57425;51.616;6.680;2023-02-15T05:45:31;3.70;78.70
70068;DHT22;57425;51.616;6.680;2023-02-15T05:47:56;3.80;78.80
70068;DHT22;57425;51.616;6.680;2023-02-15T05:52:51;3.70;78.20
70068;DHT22;57425;51.616;6.680;2023-02-15T05:55:16;3.70;78.60
70068;DHT22;57425;51.616;6.680;2023-02-15T05:57:42;3.70;78.70
70068;DHT22;57425;51.616;6.680;2023-02-15T06:00:08;3.70;78.60
70068;DHT22;57425;51.616;6.680;2023-02-15T06:02:36;3.70;78.80
70068;DHT22;57425;51.616;6.680;2023-02-15T06:05:03;3.60;78.60
70068;DHT22;57425;51.616;6.680;2023-02-15T06:07:29;3.60;78.60
70068;DHT22;57425;51.616;6.680;2023-02-15T06:09:54;3.60;78.50
70068;DHT22;57425;51.616;6.680;2023-02-15T06:12:20;3.60;78.50
70068;DHT22;57425;51.616;6.680;2023-02-15T06:14:45;3.60;78.60
70068;DHT22;57425;51.616;6.680;2023-02-15T06:17:11;3.60;78.60
70068;DHT22;57425;51.616;6.680;2023-02-15T06:19:37;3.60;78.60
70068;DHT22;57425;51.616;6.680;2023-02-15T06:22:03;3.60;78.60
70068;DHT22;57425;51.616;6.680;2023-02-15T06:24:29;3.60;78.60
70068;DHT22;57425;51.616;6.680;2023-02-15T06:26:54;3.60;78.60
70068;DHT22;57425;51.616;6.680;2023-02-15T06:29:20;3.50;79.00
70068;DHT22;57425;51.616;6.680;2023-02-15T06:31:45;3.50;78.50
70068;DHT22;57425;51.616;6.680;2023-02-15T06:34:12;3.50;78.50
70068;DHT22;57425;51.616;6.680;2023-02-15T06:36:37;3.50;78.50
70068;DHT22;57425;51.616;6.680;2023-02-15T06:39:03;3.50;78.40
70068;DHT22;57425;51.616;6.680;2023-02-15T06:41:29;3.50;78.40
70068;DHT22;57425;51.616;6.680;2023-02-15T06:43:55;3.50;78.50
70068;DHT22;57425;51.616;6.680;2023-02-15T06:46:21;3.50;79.00
70068;DHT22;57425;51.616;6.680;2023-02-15T06:48:47;3.40;78.30
70068;DHT22;57425;51.616;6.680;2023-02-15T06:51:12;3.40;78.40
70068;DHT22;57425;51.616;6.680;2023-02-15T06:53:38;3.40;78.50
70068;DHT22;57425;51.616;6.680;2023-02-15T06:56:07;3.40;78.50
70068;DHT22;57425;51.616;6.680;2023-02-15T06:58:38;3.40;78.40
70068;DHT22;57425;51.616;6.680;2023-02-15T07:01:05;3.40;78.40
70068;DHT22;57425;51.616;6.680;2023-02-15T07:03:31;3.40;78.40
70068;DHT22;57425;51.616;6.680;2023-02-15T07:05:58;3.40;78.40
70068;DHT22;57425;51.616;6.680;2023-02-15T07:08:24;3.40;78.50
70068;DHT22;57425;51.616;6.680;2023-02-15T07:10:51;3.40;78.50
70068;DHT22;57425;51.616;6.680;2023-02-15T07:13:18;3.30;78.40
70068;DHT22;57425;51.616;6.680;2023-02-15T07:15:45;3.40;78.40
70068;DHT22;57425;51.616;6.680;2023-02-15T07:18:11;3.30;78.40
70068;DHT22;57425;51.616;6.680;2023-02-15T07:20:37;3.30;79.00
70068;DHT22;57425;51.616;6.680;2023-02-15T07:23:04;3.30;78.50
70068;DHT22;57425;51.616;6.680;2023-02-15T07:25:30;3.30;78.60
70068;DHT22;57425;51.616;6.680;2023-02-15T07:28:00;3.30;78.60
70068;DHT22;57425;51.616;6.680;2023-02-15T07:30:26;3.30;78.60
70068;DHT22;57425;51.616;6.680;2023-02-15T07:32:58;3.30;79.20
70068;DHT22;57425;51.616;6.680;2023-02-15T07:35:53;3.30;78.70
70068;DHT22;57425;51.616;6.680;2023-02-15T07:38:20;3.30;78.70
70068;DHT22;57425;51.616;6.680;2023-02-15T07:40:46;3.30;79.00
70068;DHT22;57425;51.616;6.680;2023-02-15T07:43:12;3.30;79.10
70068;DHT22;57425;51.616;6.680;2023-02-15T07:45:38;3.40;79.80
70068;DHT22;57425;51.616;6.680;2023-02-15T07:48:04;3.20;79.20
70068;DHT22;57425;51.616;6.680;2023-02-15T07:50:31;3.20;79.20
70068;DHT22;57425;51.616;6.680;2023-02-15T07:52:57;3.20;79.30
70068;DHT22;57425;51.616;6.680;2023-02-15T07:55:22;3.20;79.30
70068;DHT22;57425;51.616;6.680;2023-02-15T07:57:49;3.30;79.40
70068;DHT22;57425;51.616;6.680;2023-02-15T08:00:17;3.30;80.10
70068;DHT22;57425;51.616;6.680;2023-02-15T08:02:55;3.20;79.50
70068;DHT22;57425;51.616;6.680;2023-02-15T08:05:41;3.20;79.60
70068;DHT22;57425;51.616;6.680;2023-02-15T08:08:08;3.20;79.80
70068;DHT22;57425;51.616;6.680;2023-02-15T08:10:35;3.20;79.80
70068;DHT22;57425;51.616;6.680;2023-02-15T08:13:19;3.20;80.00
70068;DHT22;57425;51.616;6.680;2023-02-15T08:15:51;3.20;80.00
70068;DHT22;57425;51.616;6.680;2023-02-15T08:18:17;3.20;80.10
70068;DHT22;57425;51.616;6.680;2023-02-15T08:20:42;3.20;80.20
70068;DHT22;57425;51.616;6.680;2023-02-15T08:23:13;3.20;80.20
70068;DHT22;57425;51.616;6.680;2023-02-15T08:25:39;3.20;80.30
70068;DHT22;57425;51.616;6.680;2023-02-15T08:28:04;3.20;80.40
70068;DHT22;57425;51.616;6.680;2023-02-15T08:30:30;3.20;80.50
70068;DHT22;57425;51.616;6.680;2023-02-15T08:32:56;3.20;80.50
70068;DHT22;57425;51.616;6.680;2023-02-15T08:35:21;3.20;80.70
70068;DHT22;57425;51.616;6.680;2023-02-15T08:37:47;3.20;80.70
70068;DHT22;57425;51.616;6.680;2023-02-15T08:40:12;3.20;80.80
70068;DHT22;57425;51.616;6.680;2023-02-15T08:42:38;3.20;80.90
70068;DHT22;57425;51.616;6.680;2023-02-15T08:45:05;3.20;80.90
70068;DHT22;57425;51.616;6.680;2023-02-15T08:47:30;3.20;81.00
70068;DHT22;57425;51.616;6.680;2023-02-15T08:49:56;3.20;81.00
70068;DHT22;57425;51.616;6.680;2023-02-15T08:52:21;3.20;81.00
70068;DHT22;57425;51.616;6.680;2023-02-15T08:54:47;3.20;81.10
70068;DHT22;57425;51.616;6.680;2023-02-15T08:57:12;3.20;81.20
70068;DHT22;57425;51.616;6.680;2023-02-15T08:59:38;3.20;81.30
70068;DHT22;57425;51.616;6.680;2023-02-15T09:02:03;3.20;81.30
70068;DHT22;57425;51.616;6.680;2023-02-15T09:04:29;3.20;81.30
70068;DHT22;57425;51.616;6.680;2023-02-15T09:06:55;3.20;81.40
70068;DHT22;57425;51.616;6.680;2023-02-15T09:09:21;3.20;81.40
70068;DHT22;57425;51.616;6.680;2023-02-15T09:11:49;3.20;81.50
70068;DHT22;57425;51.616;6.680;2023-02-15T09:14:19;3.20;81.50
70068;DHT22;57425;51.616;6.680;2023-02-15T09:16:47;3.20;81.50
70068;DHT22;57425;51.616;6.680;2023-02-15T09:19:15;3.20;81.60
70068;DHT22;57425;51.616;6.680;2023-02-15T09:21:41;3.20;81.60
70068;DHT22;57425;51.616;6.680;2023-02-15T09:24:12;3.20;81.60
70068;DHT22;57425;51.616;6.680;2023-02-15T09:26:41;3.30;81.80
70068;DHT22;57425;51.616;6.680;2023-02-15T09:29:07;3.30;81.80
70068;DHT22;57425;51.616;6.680;2023-02-15T09:31:38;3.30;81.90
70068;DHT22;57425;51.616;6.680;2023-02-15T09:34:03;3.30;81.90
70068;DHT22;57425;51.616;6.680;2023-02-15T09:36:32;3.30;82.00
70068;DHT22;57425;51.616;6.680;2023-02-15T09:39:19;3.30;82.10
70068;DHT22;57425;51.616;6.680;2023-02-15T09:50:40;3.30;82.30
70068;DHT22;57425;51.616;6.680;2023-02-15T09:56:19;3.40;82.60
70068;DHT22;57425;51.616;6.680;2023-02-15T10:12:36;3.50;82.90
70068;DHT22;57425;51.616;6.680;2023-02-15T10:15:30;3.60;83.00
70068;DHT22;57425;51.616;6.680;2023-02-15T10:23:45;3.60;83.10
70068;DHT22;57425;51.616;6.680;2023-02-15T10:28:57;3.70;83.30
70068;DHT22;57425;51.616;6.680;2023-02-15T10:31:39;3.70;83.40
70068;DHT22;57425;51.616;6.680;2023-02-15T10:34:18;3.70;83.50
70068;DHT22;57425;51.616;6.680;2023-02-15T10:40:01;3.70;83.50
70068;DHT22;57425;51.616;6.680;2023-02-15T11:00:23;3.90;83.90
70068;DHT22;57425;51.616;6.680;2023-02-15T11:02:40;3.90;83.90
70068;DHT22;57425;51.616;6.680;2023-02-15T11:07:51;4.00;84.10
70068;DHT22;57425;51.616;6.680;2023-02-15T11:10:44;4.00;84.10
70068;DHT22;57425;51.616;6.680;2023-02-15T11:13:15;4.10;84.10
70068;DHT22;57425;51.616;6.680;2023-02-15T11:18:32;4.10;84.20
70068;DHT22;57425;51.616;6.680;2023-02-15T11:21:13;4.10;84.20
70068;DHT22;57425;51.616;6.680;2023-02-15T11:23:44;4.10;84.30
70068;DHT22;57425;51.616;6.680;2023-02-15T11:26:34;4.10;84.30
70068;DHT22;57425;51.616;6.680;2023-02-15T11:29:12;4.20;84.30
70068;DHT22;57425;51.616;6.680;2023-02-15T11:31:44;4.20;84.40
70068;DHT22;57425;51.616;6.680;2023-02-15T11:37:05;4.30;84.40
70068;DHT22;57425;51.616;6.680;2023-02-15T11:39:33;4.30;84.50
70068;DHT22;57425;51.616;6.680;2023-02-15T11:42:04;4.30;84.50
70068;DHT22;57425;51.616;6.680;2023-02-15T11:44:41;4.30;84.50
70068;DHT22;57425;51.616;6.680;2023-02-15T11:47:10;4.30;84.50
70068;DHT22;57425;51.616;6.680;2023-02-15T11:49:36;4.40;84.60
70068;DHT22;57425;51.616;6.680;2023-02-15T11:52:06;4.40;84.60
70068;DHT22;57425;51.616;6.680;2023-02-15T11:54:35;4.40;84.60
70068;DHT22;57425;51.616;6.680;2023-02-15T12:02:37;4.50;84.70
70068;DHT22;57425;51.616;6.680;2023-02-15T12:05:15;4.50;84.70
70068;DHT22;57425;51.616;6.680;2023-02-15T12:07:46;4.60;84.70
70068;DHT22;57425;51.616;6.680;2023-02-15T12:10:29;4.60;84.70
70068;DHT22;57425;51.616;6.680;2023-02-15T12:13:14;4.60;84.70
70068;DHT22;57425;51.616;6.680;2023-02-15T12:15:43;4.60;84.70
70068;DHT22;57425;51.616;6.680;2023-02-15T12:18:32;4.60;84.80
70068;DHT22;57425;51.616;6.680;2023-02-15T12:21:04;4.60;85.30
70068;DHT22;57425;51.616;6.680;2023-02-15T12:23:32;4.60;84.80
70068;DHT22;57425;51.616;6.680;2023-02-15T12:25:58;4.70;84.80
70068;DHT22;57425;51.616;6.680;2023-02-15T12:28:26;4.70;84.80
70068;DHT22;57425;51.616;6.680;2023-02-15T12:30:53;4.70;84.80
70068;DHT22;57425;51.616;6.680;2023-02-15T12:33:30;4.70;84.80
70068;DHT22;57425;51.616;6.680;2023-02-15T12:36:19;4.80;85.40
70068;DHT22;57425;51.616;6.680;2023-02-15T12:39:04;4.80;84.90
70068;DHT22;57425;51.616;6.680;2023-02-15T12:41:30;4.90;84.90
70068;DHT22;57425;51.616;6.680;2023-02-15T12:44:15;4.90;85.00
70068;DHT22;57425;51.616;6.680;2023-02-15T12:46:41;4.90;84.90
70068;DHT22;57425;51.616;6.680;2023-02-15T12:49:19;4.90;84.90
70068;DHT22;57425;51.616;6.680;2023-02-15T12:51:52;5.00;85.00
70068;DHT22;57425;51.616;6.680;2023-02-15T12:54:39;5.00;85.00
70068;DHT22;57425;51.616;6.680;2023-02-15T12:57:31;5.00;84.90
70068;DHT22;57425;51.616;6.680;2023-02-15T12:59:59;5.10;84.90
70068;DHT22;57425;51.616;6.680;2023-02-15T13:02:45;5.10;85.00
70068;DHT22;57425;51.616;6.680;2023-02-15T13:05:42;5.10;85.00
70068;DHT22;57425;51.616;6.680;2023-02-15T13:08:12;5.10;84.90
70068;DHT22;57425;51.616;6.680;2023-02-15T13:10:54;5.10;85.00
70068;DHT22;57425;51.616;6.680;2023-02-15T13:13:26;5.10;84.90
70068;DHT22;57425;51.616;6.680;2023-02-15T13:15:57;5.20;85.00
70068;DHT22;57425;51.616;6.680;2023-02-15T13:18:34;5.20;85.00
70068;DHT22;57425;51.616;6.680;2023-02-15T13:21:10;5.20;85.00
70068;DHT22;57425;51.616;6.680;2023-02-15T13:23:38;5.30;85.00
70068;DHT22;57425;51.616;6.680;2023-02-15T13:26:10;5.20;85.00
70068;DHT22;57425;51.616;6.680;2023-02-15T13:28:46;5.30;85.00
70068;DHT22;57425;51.616;6.680;2023-02-15T13:31:19;5.40;85.00
70068;DHT22;57425;51.616;6.680;2023-02-15T13:33:58;5.30;85.00
70068;DHT22;57425;51.616;6.680;2023-02-15T13:36:49;5.40;85.00
70068;DHT22;57425;51.616;6.680;2023-02-15T13:39:42;5.40;84.90
70068;DHT22;57425;51.616;6.680;2023-02-15T13:42:26;5.40;84.90
70068;DHT22;57425;51.616;6.680;2023-02-15T13:48:25;5.50;84.90
70068;DHT22;57425;51.616;6.680;2023-02-15T13:51:41;5.50;84.90
70068;DHT22;57425;51.616;6.680;2023-02-15T13:57:14;5.50;84.90
70068;DHT22;57425;51.616;6.680;2023-02-15T13:59:47;5.50;84.90
70068;DHT22;57425;51.616;6.680;2023-02-15T14:15:48;5.70;85.00
70068;DHT22;57425;51.616;6.680;2023-02-15T14:20:55;5.70;84.90
70068;DHT22;57425;51.616;6.680;2023-02-15T14:29:11;5.80;84.80
70068;DHT22;57425;51.616;6.680;2023-02-15T14:31:42;5.80;84.70
70068;DHT22;57425;51.616;6.680;2023-02-15T14:34:24;5.80;84.80
70068;DHT22;57425;51.616;6.680;2023-02-15T14:36:53;5.90;84.80
70068;DHT22;57425;51.616;6.680;2023-02-15T14:42:34;5.90;84.80
70068;DHT22;57425;51.616;6.680;2023-02-15T14:47:35;5.90;84.80
70068;DHT22;57425;51.616;6.680;2023-02-15T14:50:55;5.90;84.70
70068;DHT22;57425;51.616;6.680;2023-02-15T14:58:36;6.00;85.10
70068;DHT22;57425;51.616;6.680;2023-02-15T15:01:07;6.00;84.80
70068;DHT22;57425;51.616;6.680;2023-02-15T15:03:34;6.00;84.70
70068;DHT22;57425;51.616;6.680;2023-02-15T15:06:02;6.00;84.70
70068;DHT22;57425;51.616;6.680;2023-02-15T15:08:34;6.10;84.70
70068;DHT22;57425;51.616;6.680;2023-02-15T15:13:58;6.10;84.60
70068;DHT22;57425;51.616;6.680;2023-02-15T15:18:49;6.10;85.20
70068;DHT22;57425;51.616;6.680;2023-02-15T15:27:42;6.20;84.60
70068;DHT22;57425;51.616;6.680;2023-02-15T15:35:49;6.20;84.60
70068;DHT22;57425;51.616;6.680;2023-02-15T15:47:25;6.30;84.60
70068;DHT22;57425;51.616;6.680;2023-02-15T15:49:57;6.30;84.70
70068;DHT22;57425;51.616;6.680;2023-02-15T15:52:23;6.30;84.70
70068;DHT22;57425;51.616;6.680;2023-02-15T15:54:57;6.30;85.20
70068;DHT22;57425;51.616;6.680;2023-02-15T15:57:39;6.30;84.60
70068;DHT22;57425;51.616;6.680;2023-02-15T16:02:57;6.40;84.60
70068;DHT22;57425;51.616;6.680;2023-02-15T16:05:23;6.40;84.70
70068;DHT22;57425;51.616;6.680;2023-02-15T16:07:49;6.40;84.70
70068;DHT22;57425;51.616;6.680;2023-02-15T16:10:27;6.40;84.70
70068;DHT22;57425;51.616;6.680;2023-02-15T16:12:54;6.40;84.60
70068;DHT22;57425;51.616;6.680;2023-02-15T16:15:22;6.40;84.60
70068;DHT22;57425;51.616;6.680;2023-02-15T16:17:56;6.40;84.60
70068;DHT22;57425;51.616;6.680;2023-02-15T16:20:30;6.50;84.60
70068;DHT22;57425;51.616;6.680;2023-02-15T16:23:55;6.40;84.50
70068;DHT22;57425;51.616;6.680;2023-02-15T16:26:29;6.50;84.50
70068;DHT22;57425;51.616;6.680;2023-02-15T16:28:50;6.40;84.60
70068;DHT22;57425;51.616;6.680;2023-02-15T16:31:21;6.50;84.60
70068;DHT22;57425;51.616;6.680;2023-02-15T16:33:48;6.40;84.50
70068;DHT22;57425;51.616;6.680;2023-02-15T16:36:25;6.50;84.50
70068;DHT22;57425;51.616;6.680;2023-02-15T16:41:20;6.50;84.50
70068;DHT22;57425;51.616;6.680;2023-02-15T16:43:49;6.50;84.50
70068;DHT22;57425;51.616;6.680;2023-02-15T16:46:40;6.50;84.30
70068;DHT22;57425;51.616;6.680;2023-02-15T16:49:24;6.50;84.20
70068;DHT22;57425;51.616;6.680;2023-02-15T16:52:13;6.50;84.30
70068;DHT22;57425;51.616;6.680;2023-02-15T16:54:41;6.70;84.20
70068;DHT22;57425;51.616;6.680;2023-02-15T16:57:17;6.50;84.30
70068;DHT22;57425;51.616;6.680;2023-02-15T16:59:48;6.60;84.20
70068;DHT22;57425;51.616;6.680;2023-02-15T17:02:28;6.60;84.30
70068;DHT22;57425;51.616;6.680;2023-02-15T17:05:13;6.60;84.20
70068;DHT22;57425;51.616;6.680;2023-02-15T17:10:40;6.60;84.00
70068;DHT22;57425;51.616;6.680;2023-02-15T17:13:15;6.50;84.10
70068;DHT22;57425;51.616;6.680;2023-02-15T17:18:32;6.60;84.00
70068;DHT22;57425;51.616;6.680;2023-02-15T17:21:01;6.50;84.00
70068;DHT22;57425;51.616;6.680;2023-02-15T17:23:40;6.50;84.00
70068;DHT22;57425;51.616;6.680;2023-02-15T17:26:23;6.50;84.00
70068;DHT22;57425;51.616;6.680;2023-02-15T17:28:55;6.70;84.00
70068;DHT22;57425;51.616;6.680;2023-02-15T17:31:29;6.60;84.00
70068;DHT22;57425;51.616;6.680;2023-02-15T17:33:57;6.70;84.10
70068;DHT22;57425;51.616;6.680;2023-02-15T17:36:26;6.50;84.00
70068;DHT22;57425;51.616;6.680;2023-02-15T17:41:30;6.60;83.90
70068;DHT22;57425;51.616;6.680;2023-02-15T17:43:57;6.60;83.90
70068;DHT22;57425;51.616;6.680;2023-02-15T17:46:24;6.50;83.90
70068;DHT22;57425;51.616;6.680;2023-02-15T17:48:53;6.60;83.90
70068;DHT22;57425;51.616;6.680;2023-02-15T17:51:21;6.60;83.90
70068;DHT22;57425;51.616;6.680;2023-02-15T17:53:47;6.60;83.80
70068;DHT22;57425;51.616;6.680;2023-02-15T17:56:32;6.50;83.80
70068;DHT22;57425;51.616;6.680;2023-02-15T17:58:58;6.60;83.80
70068;DHT22;57425;51.616;6.680;2023-02-15T18:01:24;6.60;83.80
70068;DHT22;57425;51.616;6.680;2023-02-15T18:04:11;6.50;83.80
70068;DHT22;57425;51.616;6.680;2023-02-15T18:06:56;6.50;83.70
70068;DHT22;57425;51.616;6.680;2023-02-15T18:09:40;6.50;83.80
70068;DHT22;57425;51.616;6.680;2023-02-15T18:12:30;6.50;83.80
70068;DHT22;57425;51.616;6.680;2023-02-15T18:14:57;6.60;83.90
70068;DHT22;57425;51.616;6.680;2023-02-15T18:17:33;6.70;83.90
70068;DHT22;57425;51.616;6.680;2023-02-15T18:20:02;6.50;84.20
70068;DHT22;57425;51.616;6.680;2023-02-15T18:22:30;6.60;83.90
70068;DHT22;57425;51.616;6.680;2023-02-15T18:24:56;6.50;83.80
70068;DHT22;57425;51.616;6.680;2023-02-15T18:27:22;6.60;83.90
70068;DHT22;57425;51.616;6.680;2023-02-15T18:29:48;6.50;83.90
70068;DHT22;57425;51.616;6.680;2023-02-15T18:32:21;6.50;84.40
70068;DHT22;57425;51.616;6.680;2023-02-15T18:34:48;6.50;83.90
70068;DHT22;57425;51.616;6.680;2023-02-15T18:37:21;6.60;83.90
70068;DHT22;57425;51.616;6.680;2023-02-15T18:39:48;6.60;83.80
70068;DHT22;57425;51.616;6.680;2023-02-15T18:44:46;6.60;83.80
70068;DHT22;57425;51.616;6.680;2023-02-15T18:47:12;6.50;83.80
70068;DHT22;57425;51.616;6.680;2023-02-15T18:49:37;6.50;83.80
70068;DHT22;57425;51.616;6.680;2023-02-15T18:52:03;6.50;83.70
70068;DHT22;57425;51.616;6.680;2023-02-15T18:54:30;6.50;83.70
70068;DHT22;57425;51.616;6.680;2023-02-15T18:56:59;6.50;84.20
70068;DHT22;57425;51.616;6.680;2023-02-15T18:59:26;6.50;83.60
70068;DHT22;57425;51.616;6.680;2023-02-15T19:01:53;6.50;83.60
70068;DHT22;57425;51.616;6.680;2023-02-15T19:04:20;6.50;83.60